Time;durP1;ratioP1;P1;durP2;ratioP2;P2;SDS_P1;SDS_P2;PMS_P1;PMS_P2;Temp;Humidity;BMP_temperature;BMP_pressure;BME280_temperature;BME280_humidity;BME280_pressure;Samples;Min_cycle;Max_cycle;Signal;HPM_P1;HPM_P2
2020/12/30 00:00:33;;;;;;;18.85;11.15;;;;;;;4.53;85.28;97054.66;6048316;23;20226;-86
2020/12/30 00:02:59;;;;;;;23.77;13.97;;;;;;;4.60;85.25;97051.44;6109126;23;20226;-85
2020/12/30 00:05:30;;;;;;;20.88;11.00;;;;;;;4.65;85.02;97051.09;6095405;23;20473;-84
2020/12/30 00:07:56;;;;;;;16.27;10.02;;;;;;;4.70;84.75;97054.25;6078462;23;20294;-84
2020/12/30 00:10:23;;;;;;;15.37;10.53;;;;;;;4.76;84.83;97057.28;6087467;23;20195;-85
2020/12/30 00:12:50;;;;;;;12.43;9.20;;;;;;;4.66;84.84;97055.44;6084141;23;20439;-85
2020/12/30 00:15:18;;;;;;;12.75;9.02;;;;;;;4.74;85.22;97063.72;6081321;23;20215;-85
2020/12/30 00:17:44;;;;;;;12.93;9.45;;;;;;;5.03;84.35;97060.56;6104078;23;20207;-85
2020/12/30 00:20:13;;;;;;;8.18;5.05;;;;;;;4.96;83.64;97059.31;6060634;23;20174;-85
2020/12/30 00:22:41;;;;;;;12.25;9.90;;;;;;;4.87;84.42;97060.00;6081408;23;20502;-86
2020/12/30 00:25:07;;;;;;;12.35;9.25;;;;;;;4.89;84.16;97062.56;6080698;23;20203;-85
2020/12/30 00:27:38;;;;;;;11.10;9.10;;;;;;;5.26;82.99;97054.28;6072269;23;20268;-85
2020/12/30 00:30:08;;;;;;;7.00;6.00;;;;;;;5.08;83.34;97069.00;6051896;23;20207;-84
2020/12/30 00:32:34;;;;;;;6.57;4.85;;;;;;;5.19;82.85;97062.88;6095989;23;20217;-85
2020/12/30 00:35:00;;;;;;;4.65;4.00;;;;;;;5.24;82.38;97064.22;6075020;23;20168;-85
2020/12/30 00:37:27;;;;;;;3.88;3.47;;;;;;;5.19;82.38;97061.06;6052575;23;20294;-85
2020/12/30 00:39:53;;;;;;;3.63;3.22;;;;;;;5.28;82.39;97065.69;6073085;23;20274;-84
2020/12/30 00:42:19;;;;;;;3.73;2.80;;;;;;;5.33;81.61;97057.34;6097733;23;20207;-85
2020/12/30 00:44:46;;;;;;;3.17;2.60;;;;;;;5.30;81.71;97063.75;6074298;23;20514;-85
2020/12/30 00:47:14;;;;;;;3.05;2.67;;;;;;;5.19;81.61;97065.56;6051719;23;20203;-85
2020/12/30 00:49:45;;;;;;;2.92;2.63;;;;;;;5.10;82.37;97067.09;6073234;23;20175;-84
2020/12/30 00:52:13;;;;;;;2.92;2.60;;;;;;;5.11;82.43;97070.59;6053579;23;20227;-84
2020/12/30 00:54:45;;;;;;;4.07;3.00;;;;;;;5.15;81.97;97074.75;6078163;23;20242;-84
2020/12/30 00:57:22;;;;;;;3.20;2.90;;;;;;;5.26;81.75;97078.25;6078622;23;20214;-84
2020/12/30 00:59:48;;;;;;;4.22;2.95;;;;;;;5.12;81.68;97075.00;6098862;23;20211;-83
2020/12/30 01:02:14;;;;;;;2.53;2.33;;;;;;;5.34;81.01;97078.56;6074440;23;20195;-84
2020/12/30 01:05:06;;;;;;;3.35;2.60;;;;;;;5.21;81.34;97082.25;6098952;23;20166;-83
2020/12/30 01:07:32;;;;;;;3.38;2.45;;;;;;;5.19;81.24;97082.38;6098253;23;20211;-82
2020/12/30 01:09:58;;;;;;;2.63;2.43;;;;;;;5.12;81.04;97097.13;6070807;23;20207;-82
2020/12/30 01:12:24;;;;;;;3.35;2.33;;;;;;;4.91;81.71;97088.09;6102115;23;20522;-82
2020/12/30 01:14:50;;;;;;;2.92;2.70;;;;;;;5.20;82.12;97094.72;6054366;23;20267;-81
2020/12/30 01:17:16;;;;;;;3.20;2.85;;;;;;;5.22;81.65;97097.28;6117912;23;20898;-82
2020/12/30 01:19:42;;;;;;;2.78;2.58;;;;;;;5.30;81.14;97094.88;6088070;23;20155;-84
2020/12/30 01:22:08;;;;;;;2.80;2.60;;;;;;;5.31;80.84;97099.22;6076305;23;20204;-84
2020/12/30 01:24:34;;;;;;;2.50;2.30;;;;;;;5.40;81.16;97107.34;6070122;23;20210;-84
2020/12/30 01:27:02;;;;;;;3.40;2.70;;;;;;;5.41;80.94;97094.91;6069302;23;20297;-83
2020/12/30 01:29:28;;;;;;;2.50;2.30;;;;;;;5.42;80.53;97089.47;6076029;23;20214;-83
2020/12/30 01:31:54;;;;;;;3.63;2.70;;;;;;;5.40;80.67;97093.19;6044131;23;20211;-83
2020/12/30 01:34:20;;;;;;;3.30;3.00;;;;;;;5.42;80.63;97097.44;6045226;23;20235;-83
2020/12/30 01:36:51;;;;;;;3.22;2.65;;;;;;;5.25;80.92;97092.56;6046484;23;20451;-84
2020/12/30 01:39:17;;;;;;;3.08;2.75;;;;;;;5.30;81.30;97094.88;6057144;23;20286;-84
2020/12/30 01:41:43;;;;;;;3.45;3.15;;;;;;;5.43;81.49;97101.81;6069736;23;20207;-84
2020/12/30 01:44:09;;;;;;;3.00;2.70;;;;;;;5.42;81.40;97105.44;6083791;23;20152;-82
2020/12/30 01:46:37;;;;;;;2.95;2.65;;;;;;;5.33;81.30;97102.63;6077459;23;20275;-82
2020/12/30 01:49:06;;;;;;;4.10;2.60;;;;;;;5.36;81.17;97110.38;6078281;23;20222;-80
2020/12/30 01:51:32;;;;;;;3.40;3.10;;;;;;;5.38;81.82;97101.31;6100925;23;20255;-81
2020/12/30 01:53:59;;;;;;;3.13;2.78;;;;;;;5.34;81.27;97107.00;6077653;23;20205;-81
2020/12/30 01:56:30;;;;;;;3.55;3.00;;;;;;;5.26;81.50;97109.41;6071791;23;20784;-82
2020/12/30 01:58:56;;;;;;;3.55;2.50;;;;;;;5.33;81.59;97100.81;6051005;23;20168;-82
2020/12/30 02:01:27;;;;;;;2.80;2.53;;;;;;;5.29;81.43;97103.81;6071550;23;20187;-83
2020/12/30 02:03:56;;;;;;;3.05;2.60;;;;;;;5.38;81.80;97097.81;6084283;23;20230;-85
2020/12/30 02:06:23;;;;;;;2.53;2.33;;;;;;;5.40;81.43;97101.19;6048723;23;20262;-86
2020/12/30 02:08:50;;;;;;;5.28;2.80;;;;;;;5.39;81.51;97111.00;6050355;23;20207;-87
2020/12/30 02:11:18;;;;;;;2.63;2.42;;;;;;;5.34;81.43;97113.19;6072496;23;20212;-86
2020/12/30 02:13:44;;;;;;;4.45;2.80;;;;;;;5.29;81.78;97109.16;6101533;23;20160;-85
2020/12/30 02:16:10;;;;;;;3.00;2.70;;;;;;;5.33;82.22;97114.13;6045237;23;20211;-86
2020/12/30 02:18:53;;;;;;;3.50;2.90;;;;;;;5.29;82.02;97115.34;6049725;23;20233;-86
2020/12/30 02:21:19;;;;;;;3.22;2.72;;;;;;;5.40;82.48;97115.34;6073922;23;20214;-86
2020/12/30 02:23:47;;;;;;;2.97;2.78;;;;;;;5.48;81.81;97120.97;6048316;23;20207;-86
2020/12/30 02:26:13;;;;;;;4.00;3.17;;;;;;;5.45;81.86;97121.19;6079170;23;20171;-86
2020/12/30 02:28:39;;;;;;;2.65;2.45;;;;;;;5.53;81.74;97118.75;6077930;23;20229;-85
2020/12/30 02:31:06;;;;;;;3.60;2.63;;;;;;;5.58;81.17;97116.59;6105604;23;20324;-86
2020/12/30 02:33:32;;;;;;;3.20;2.50;;;;;;;5.57;81.09;97124.75;6051266;23;20211;-85
2020/12/30 02:35:58;;;;;;;4.40;3.75;;;;;;;5.66;80.89;97124.88;6054104;23;20211;-85
2020/12/30 02:38:25;;;;;;;5.03;2.78;;;;;;;5.64;80.92;97121.47;6050030;23;20222;-85
2020/12/30 02:40:51;;;;;;;3.70;2.58;;;;;;;5.51;81.05;97131.38;6083549;23;20175;-85
2020/12/30 02:43:17;;;;;;;2.90;2.70;;;;;;;5.68;80.55;97128.25;6058457;23;20259;-86
2020/12/30 02:45:43;;;;;;;3.70;3.10;;;;;;;5.70;80.38;97130.81;6055872;23;20316;-86
2020/12/30 02:48:09;;;;;;;3.65;2.75;;;;;;;5.63;80.68;97133.09;6026600;23;20219;-86
2020/12/30 02:50:37;;;;;;;2.97;2.67;;;;;;;5.60;81.24;97130.69;6073351;23;20219;-86
2020/12/30 02:53:03;;;;;;;4.28;2.60;;;;;;;5.65;81.09;97133.81;6071137;23;20197;-85
2020/12/30 02:55:29;;;;;;;3.42;2.63;;;;;;;5.61;81.03;97129.72;6075678;23;20179;-86
2020/12/30 02:57:56;;;;;;;3.13;2.80;;;;;;;5.57;80.90;97141.56;6049939;23;20221;-85
2020/12/30 03:00:22;;;;;;;3.15;2.85;;;;;;;5.55;80.89;97143.50;6073464;23;20206;-86
2020/12/30 03:02:48;;;;;;;3.35;2.60;;;;;;;5.53;81.31;97147.25;6056420;23;20213;-85
2020/12/30 03:05:14;;;;;;;2.83;2.30;;;;;;;5.39;81.36;97153.63;6045818;23;20171;-85
2020/12/30 03:07:40;;;;;;;3.05;2.75;;;;;;;5.36;81.97;97161.88;6096770;23;20440;-84
2020/12/30 03:10:06;;;;;;;5.68;2.83;;;;;;;5.42;82.10;97160.53;6067788;23;20215;-85
2020/12/30 03:12:32;;;;;;;3.00;2.70;;;;;;;5.44;81.92;97156.78;6094015;23;20230;-85
2020/12/30 03:14:58;;;;;;;3.17;2.88;;;;;;;5.46;81.61;97154.84;6049212;23;20207;-85
2020/12/30 03:17:24;;;;;;;3.70;3.30;;;;;;;5.39;81.94;97156.28;6058072;23;20235;-84
2020/12/30 03:19:55;;;;;;;5.50;3.25;;;;;;;5.51;82.13;97166.03;6081895;23;20203;-85
2020/12/30 03:22:21;;;;;;;3.97;2.92;;;;;;;5.47;82.04;97156.59;6065115;23;20226;-85
2020/12/30 03:24:47;;;;;;;3.60;3.30;;;;;;;5.39;81.65;97164.28;6073553;23;20238;-85
2020/12/30 03:27:13;;;;;;;4.45;3.55;;;;;;;5.44;82.31;97155.97;6050590;23;20217;-85
2020/12/30 03:29:40;;;;;;;4.18;3.40;;;;;;;5.50;82.75;97150.13;6046860;23;20469;-86
2020/12/30 03:32:06;;;;;;;4.05;3.30;;;;;;;5.45;82.47;97158.50;6051638;23;20199;-86
2020/12/30 03:34:32;;;;;;;3.25;2.95;;;;;;;5.44;82.77;97161.28;6103333;23;20203;-85
2020/12/30 03:37:02;;;;;;;3.53;3.20;;;;;;;5.37;83.14;97158.22;6079182;23;20214;-86
2020/12/30 03:39:35;;;;;;;3.88;3.40;;;;;;;5.51;82.80;97165.19;6047320;23;20213;-86
2020/12/30 03:42:06;;;;;;;4.95;4.55;;;;;;;5.46;82.80;97162.84;6098256;23;20235;-86
2020/12/30 03:44:33;;;;;;;4.75;3.15;;;;;;;5.37;82.61;97168.91;6069918;23;20199;-86
2020/12/30 03:47:00;;;;;;;3.58;3.28;;;;;;;5.40;82.96;97168.66;6114014;23;20819;-86
2020/12/30 03:49:26;;;;;;;3.70;3.40;;;;;;;5.44;82.96;97166.63;6059590;23;20207;-85
2020/12/30 03:51:53;;;;;;;5.10;3.30;;;;;;;5.37;82.98;97170.69;6053445;23;20231;-86
2020/12/30 03:54:19;;;;;;;3.85;3.28;;;;;;;5.48;82.76;97178.72;6099164;23;20207;-86
2020/12/30 03:56:46;;;;;;;3.65;2.60;;;;;;;5.32;82.85;97184.38;6070305;23;20211;-86
2020/12/30 03:59:12;;;;;;;3.15;2.90;;;;;;;5.20;83.04;97182.63;6049260;23;20164;-85
2020/12/30 04:01:38;;;;;;;3.92;3.53;;;;;;;5.21;83.70;97194.16;6073761;23;20167;-85
2020/12/30 04:04:05;;;;;;;3.63;3.10;;;;;;;5.13;83.66;97188.53;6074360;23;20207;-85
2020/12/30 04:06:31;;;;;;;4.13;3.10;;;;;;;5.03;84.17;97184.84;6071403;23;20207;-86
2020/12/30 04:08:57;;;;;;;4.10;2.90;;;;;;;5.06;84.37;97188.13;6053559;23;20207;-85
2020/12/30 04:11:23;;;;;;;4.47;2.95;;;;;;;5.11;84.51;97180.66;6052917;23;20274;-86
2020/12/30 04:13:49;;;;;;;3.35;3.00;;;;;;;5.06;84.38;97189.97;6095851;23;20202;-85
2020/12/30 04:16:23;;;;;;;3.40;3.10;;;;;;;5.17;84.47;97190.88;6097305;23;20211;-85
2020/12/30 04:18:50;;;;;;;3.60;3.30;;;;;;;5.14;84.40;97191.06;6046878;23;20203;-85
2020/12/30 04:21:23;;;;;;;4.30;3.50;;;;;;;5.13;84.26;97200.03;6069816;23;20211;-85
2020/12/30 04:23:51;;;;;;;3.72;3.40;;;;;;;5.17;83.97;97195.31;6048504;22;20207;-85
2020/12/30 04:26:20;;;;;;;5.72;3.40;;;;;;;5.17;84.14;97198.84;6072704;23;20683;-85
2020/12/30 04:28:50;;;;;;;4.28;3.70;;;;;;;5.22;83.75;97210.03;6083424;23;20175;-87
2020/12/30 04:31:19;;;;;;;3.92;3.05;;;;;;;5.16;84.05;97197.16;6049881;23;20227;-87
2020/12/30 04:33:46;;;;;;;5.43;3.40;;;;;;;5.09;84.08;97203.03;6071521;23;20652;-87
2020/12/30 04:36:13;;;;;;;5.55;3.50;;;;;;;4.98;84.05;97200.31;6068867;23;20218;-86
2020/12/30 04:38:40;;;;;;;3.97;3.33;;;;;;;5.01;84.00;97205.44;6093516;23;20219;-87
2020/12/30 04:41:12;;;;;;;4.47;3.10;;;;;;;4.92;84.25;97206.97;6073276;23;20615;-87
2020/12/30 04:43:44;;;;;;;3.95;3.38;;;;;;;4.98;84.35;97211.84;6077996;23;20168;-86
2020/12/30 04:46:13;;;;;;;4.40;4.00;;;;;;;5.01;84.49;97210.75;6050170;23;20203;-87
2020/12/30 04:48:40;;;;;;;6.80;4.13;;;;;;;5.01;84.15;97206.25;6097499;23;20262;-87
2020/12/30 04:51:09;;;;;;;4.50;3.60;;;;;;;5.02;83.55;97202.66;6076169;23;20246;-87
2020/12/30 04:53:39;;;;;;;4.43;3.60;;;;;;;5.05;83.37;97217.53;6047089;23;20215;-85
2020/12/30 04:56:08;;;;;;;5.05;3.38;;;;;;;5.03;83.88;97217.69;6050250;23;20672;-85
2020/12/30 04:58:34;;;;;;;5.10;3.38;;;;;;;5.02;83.90;97217.78;6101992;23;20222;-85
2020/12/30 05:01:06;;;;;;;4.90;3.90;;;;;;;5.00;83.63;97214.41;6052441;23;20225;-87
2020/12/30 05:03:44;;;;;;;3.80;3.40;;;;;;;5.04;84.21;97216.72;6050847;23;20311;-85
2020/12/30 05:06:13;;;;;;;6.32;3.80;;;;;;;5.03;83.26;97212.34;6100257;23;20206;-85
2020/12/30 05:08:40;;;;;;;3.30;3.00;;;;;;;5.13;83.39;97216.00;6095532;23;20226;-85
2020/12/30 05:11:08;;;;;;;4.55;3.50;;;;;;;5.13;83.33;97217.84;6051733;23;20597;-85
2020/12/30 05:13:36;;;;;;;5.55;3.40;;;;;;;5.18;83.54;97229.84;6053998;23;20164;-86
2020/12/30 05:16:02;;;;;;;5.07;4.25;;;;;;;5.10;83.45;97229.56;6050583;23;20207;-85
2020/12/30 05:18:29;;;;;;;3.50;3.20;;;;;;;5.15;83.04;97239.88;6073056;23;20218;-87
2020/12/30 05:20:55;;;;;;;5.85;3.20;;;;;;;5.21;82.57;97244.75;6100755;23;20294;-85
2020/12/30 05:23:25;;;;;;;6.60;3.63;;;;;;;5.13;82.89;97237.31;6076810;23;20278;-85
2020/12/30 05:25:53;;;;;;;7.10;3.40;;;;;;;5.23;83.26;97249.00;6105980;23;20192;-85
2020/12/30 05:28:22;;;;;;;4.07;3.53;;;;;;;5.15;83.26;97255.88;6059797;23;20227;-85
2020/12/30 05:30:50;;;;;;;4.63;2.92;;;;;;;5.23;82.17;97253.47;6082093;23;20207;-85
2020/12/30 05:33:17;;;;;;;3.80;3.42;;;;;;;5.16;83.40;97258.44;6060545;23;20218;-85
2020/12/30 05:35:43;;;;;;;7.90;2.83;;;;;;;5.05;83.09;97261.03;6079472;23;20231;-85
2020/12/30 05:38:09;;;;;;;6.70;2.90;;;;;;;5.00;83.85;97257.84;6061182;23;20196;-85
2020/12/30 05:40:36;;;;;;;3.22;2.50;;;;;;;4.94;84.10;97266.28;6062447;23;20223;-84
2020/12/30 05:43:15;;;;;;;3.55;2.90;;;;;;;5.00;83.60;97267.66;6060437;23;20211;-85
2020/12/30 05:45:49;;;;;;;3.97;2.63;;;;;;;4.91;83.54;97266.50;6057434;23;20211;-85
2020/12/30 05:48:23;;;;;;;8.07;3.33;;;;;;;5.06;83.94;97272.53;6046666;23;20215;-88
2020/12/30 05:50:57;;;;;;;5.22;3.20;;;;;;;5.08;83.30;97278.59;6080332;23;20207;-85
2020/12/30 05:53:25;;;;;;;7.97;4.55;;;;;;;5.10;82.64;97274.00;6067977;23;20195;-87
2020/12/30 05:56:06;;;;;;;6.22;3.13;;;;;;;5.08;82.56;97276.75;6081611;23;20278;-87
2020/12/30 05:58:40;;;;;;;5.72;3.17;;;;;;;5.12;82.84;97278.25;6101419;23;20214;-87
2020/12/30 06:01:24;;;;;;;4.80;3.15;;;;;;;5.02;83.28;97282.56;6078102;23;20214;-87
2020/12/30 06:03:50;;;;;;;5.60;3.80;;;;;;;4.91;83.44;97284.28;6056325;23;20210;-87
2020/12/30 06:06:20;;;;;;;4.10;3.70;;;;;;;4.99;83.98;97293.41;6073911;23;20207;-87
2020/12/30 06:08:49;;;;;;;3.40;2.95;;;;;;;5.03;83.07;97292.25;6049572;23;20232;-87
2020/12/30 06:11:24;;;;;;;4.30;3.25;;;;;;;5.05;83.03;97289.44;6041896;23;20210;-87
2020/12/30 06:14:02;;;;;;;4.85;3.53;;;;;;;5.09;82.92;97299.78;6051793;23;20183;-87
2020/12/30 06:16:29;;;;;;;3.95;3.20;;;;;;;5.10;82.98;97301.50;6066112;23;20207;-87
2020/12/30 06:19:00;;;;;;;6.43;3.13;;;;;;;5.21;81.94;97296.22;6046473;23;20211;-87
2020/12/30 06:21:32;;;;;;;5.20;3.47;;;;;;;5.18;82.72;97299.13;6043106;23;20567;-87
2020/12/30 06:24:00;;;;;;;4.15;3.38;;;;;;;5.18;81.96;97307.09;6084730;23;20198;-86
2020/12/30 06:26:29;;;;;;;4.97;3.45;;;;;;;5.10;82.68;97304.16;6083793;23;20641;-86
2020/12/30 06:28:55;;;;;;;3.58;3.28;;;;;;;5.10;82.75;97311.28;6052749;23;20164;-87
2020/12/30 06:31:22;;;;;;;3.90;3.50;;;;;;;5.21;82.84;97308.69;6070982;23;20509;-87
2020/12/30 06:33:49;;;;;;;2.90;2.33;;;;;;;5.23;81.95;97312.09;6051684;23;20262;-86
2020/12/30 06:36:28;;;;;;;4.18;3.17;;;;;;;5.22;82.14;97321.91;6053320;23;20226;-85
2020/12/30 06:38:55;;;;;;;4.20;3.35;;;;;;;5.05;82.67;97322.28;6053725;23;20617;-86
2020/12/30 06:41:21;;;;;;;3.90;2.95;;;;;;;5.24;82.70;97317.31;6078751;23;20270;-86
2020/12/30 06:43:49;;;;;;;4.20;3.20;;;;;;;5.27;81.95;97329.56;6099912;23;20699;-87
2020/12/30 06:46:22;;;;;;;3.60;3.22;;;;;;;5.27;82.73;97327.72;6048293;23;20207;-87
2020/12/30 06:48:54;;;;;;;5.35;3.00;;;;;;;5.21;82.25;97325.50;6037816;23;20771;-86
2020/12/30 06:51:21;;;;;;;3.40;2.95;;;;;;;5.33;81.71;97332.63;6050546;23;20556;-86
2020/12/30 06:53:51;;;;;;;4.28;3.13;;;;;;;5.26;81.76;97331.38;6047618;23;21002;-86
2020/12/30 06:56:35;;;;;;;7.57;3.50;;;;;;;5.25;81.75;97331.50;6051352;23;20207;-86
2020/12/30 06:59:02;;;;;;;3.38;2.90;;;;;;;5.30;81.53;97334.66;6080992;23;20164;-86
2020/12/30 07:01:28;;;;;;;8.40;3.22;;;;;;;5.29;81.82;97341.81;6051933;23;20175;-87
2020/12/30 07:04:07;;;;;;;7.57;4.07;;;;;;;5.36;81.57;97343.06;6070669;23;20203;-86
2020/12/30 07:06:34;;;;;;;5.28;3.60;;;;;;;5.25;81.48;97343.00;6047845;23;20210;-87
2020/12/30 07:09:05;;;;;;;5.07;4.00;;;;;;;5.17;81.85;97348.03;6045789;23;20211;-86
2020/12/30 07:11:46;;;;;;;4.57;3.80;;;;;;;5.26;82.03;97352.69;6047471;23;20207;-87
2020/12/30 07:14:39;;;;;;;6.53;4.60;;;;;;;5.22;82.16;97351.22;6046038;23;20167;-87
2020/12/30 07:17:07;;;;;;;5.05;3.42;;;;;;;5.10;81.92;97357.44;6071940;23;20290;-86
2020/12/30 07:19:38;;;;;;;6.32;4.05;;;;;;;5.13;82.27;97365.19;6071724;23;20177;-86
2020/12/30 07:22:04;;;;;;;8.63;4.00;;;;;;;5.15;81.95;97355.28;6071333;23;20203;-87
2020/12/30 07:24:32;;;;;;;5.28;4.00;;;;;;;5.16;81.97;97364.97;6044968;23;20560;-87
2020/12/30 07:27:11;;;;;;;5.40;3.55;;;;;;;5.21;82.20;97361.97;6077486;23;20207;-87
2020/12/30 07:29:39;;;;;;;4.10;3.17;;;;;;;5.29;81.42;97372.94;6066998;23;20557;-86
2020/12/30 07:32:07;;;;;;;3.90;3.30;;;;;;;5.24;81.27;97367.94;6068964;23;20188;-86
2020/12/30 07:34:39;;;;;;;4.55;4.15;;;;;;;5.32;81.85;97373.56;6067697;23;20178;-85
2020/12/30 07:37:05;;;;;;;5.80;3.28;;;;;;;5.32;80.65;97381.53;6044659;23;20219;-86
2020/12/30 07:39:38;;;;;;;5.55;3.45;;;;;;;5.39;80.63;97387.31;6066549;23;20239;-86
2020/12/30 07:42:11;;;;;;;5.32;3.88;;;;;;;5.37;80.34;97386.53;6075323;23;20211;-86
2020/12/30 07:44:48;;;;;;;4.75;3.42;;;;;;;5.39;80.80;97393.47;6082033;23;20199;-87
2020/12/30 07:47:15;;;;;;;4.78;3.67;;;;;;;5.39;81.16;97403.28;6051252;23;20605;-87
2020/12/30 07:49:41;;;;;;;5.53;3.78;;;;;;;5.38;80.61;97404.25;6074445;23;20179;-87
2020/12/30 07:52:08;;;;;;;5.95;4.07;;;;;;;5.46;80.37;97415.22;6073378;23;20214;-87
2020/12/30 07:54:34;;;;;;;8.55;4.45;;;;;;;5.46;80.11;97415.22;6072560;23;20207;-86
2020/12/30 07:57:01;;;;;;;8.77;4.85;;;;;;;5.49;80.45;97425.63;6070793;23;20707;-87
2020/12/30 07:59:28;;;;;;;6.25;4.55;;;;;;;5.50;80.30;97425.53;6051428;23;20574;-86
2020/12/30 08:02:13;;;;;;;5.57;4.47;;;;;;;5.42;80.77;97427.91;6078219;23;20172;-86
2020/12/30 08:04:40;;;;;;;6.07;4.60;;;;;;;5.54;80.65;97431.50;6083216;23;20227;-86
2020/12/30 08:07:14;;;;;;;6.85;4.68;;;;;;;5.67;80.46;97441.16;6056098;23;20211;-86
2020/12/30 08:09:44;;;;;;;5.28;4.28;;;;;;;5.61;80.44;97435.41;6080888;23;20210;-86
2020/12/30 08:12:12;;;;;;;7.90;4.38;;;;;;;5.69;79.81;97439.22;6079904;23;20227;-86
2020/12/30 08:14:40;;;;;;;6.82;5.13;;;;;;;5.68;79.96;97442.00;6057666;23;20210;-86
2020/12/30 08:17:12;;;;;;;10.15;4.28;;;;;;;5.59;80.33;97448.84;6087943;23;20199;-87
2020/12/30 08:19:43;;;;;;;7.93;4.75;;;;;;;5.64;79.89;97451.19;6060714;23;20160;-86
2020/12/30 08:22:20;;;;;;;11.02;4.75;;;;;;;5.63;79.92;97461.00;6063025;23;20218;-86
2020/12/30 08:24:51;;;;;;;7.28;5.32;;;;;;;5.56;80.61;97459.75;6105008;23;20207;-87
2020/12/30 08:27:23;;;;;;;5.88;4.32;;;;;;;5.65;80.55;97459.06;6069165;23;20266;-86
2020/12/30 08:30:01;;;;;;;7.03;4.25;;;;;;;5.68;80.08;97471.31;6048524;23;20207;-86
2020/12/30 08:32:31;;;;;;;7.40;5.03;;;;;;;5.67;80.15;97462.50;6069232;23;20844;-86
2020/12/30 08:35:02;;;;;;;6.72;4.97;;;;;;;5.65;81.38;97476.88;6097374;23;20178;-85
2020/12/30 08:37:36;;;;;;;7.65;5.40;;;;;;;5.63;80.71;97477.00;6051727;23;20196;-86
2020/12/30 08:40:11;;;;;;;8.48;5.18;;;;;;;5.78;80.04;97486.53;6051773;23;20266;-85
2020/12/30 08:42:52;;;;;;;11.63;4.43;;;;;;;5.62;79.77;97485.09;6050783;23;20202;-86
2020/12/30 08:45:31;;;;;;;7.03;4.72;;;;;;;5.58;80.60;97495.13;6052361;23;20274;-86
2020/12/30 08:48:14;;;;;;;9.15;5.93;;;;;;;5.65;80.59;97491.06;6079502;23;20289;-86
2020/12/30 08:50:41;;;;;;;8.50;5.15;;;;;;;5.68;80.04;97496.19;6102345;23;20211;-86
2020/12/30 08:53:08;;;;;;;5.25;4.78;;;;;;;5.70;80.02;97493.41;6108029;23;20179;-86
2020/12/30 08:55:34;;;;;;;10.40;5.75;;;;;;;5.71;80.39;97495.94;6054040;23;20251;-86
2020/12/30 08:58:01;;;;;;;8.70;5.88;;;;;;;5.89;79.43;97494.66;6074956;23;20290;-85
2020/12/30 09:00:34;;;;;;;8.27;4.93;;;;;;;5.86;79.22;97492.22;6077353;23;20234;-85
2020/12/30 09:03:17;;;;;;;7.53;5.75;;;;;;;5.91;78.99;97494.56;5990476;23;20633;-86
2020/12/30 09:05:51;;;;;;;9.23;6.32;;;;;;;5.80;79.02;97503.34;6083431;23;20226;-86
2020/12/30 09:08:25;;;;;;;7.00;5.68;;;;;;;5.97;78.91;97504.78;6048893;23;20211;-86
2020/12/30 09:10:52;;;;;;;6.18;4.80;;;;;;;6.02;78.26;97506.13;6080335;23;20160;-86
2020/12/30 09:13:23;;;;;;;12.63;6.03;;;;;;;5.96;78.46;97517.25;6064096;23;20585;-86
2020/12/30 09:15:54;;;;;;;6.05;5.10;;;;;;;6.09;78.45;97518.06;6116298;23;20187;-86
2020/12/30 09:18:22;;;;;;;8.63;7.10;;;;;;;6.02;78.51;97527.47;6090369;23;20228;-84
2020/12/30 09:20:49;;;;;;;9.52;5.30;;;;;;;6.05;78.48;97525.44;6096216;23;20207;-85
2020/12/30 09:23:15;;;;;;;6.03;5.35;;;;;;;6.05;78.40;97527.28;6092945;23;20156;-86
2020/12/30 09:25:44;;;;;;;8.20;5.07;;;;;;;6.10;78.30;97531.28;6095111;23;20203;-85
2020/12/30 09:28:29;;;;;;;6.43;5.05;;;;;;;6.15;78.36;97529.16;6113049;23;20255;-86
2020/12/30 09:30:56;;;;;;;6.82;5.35;;;;;;;6.11;78.06;97537.50;6092104;23;20218;-84
2020/12/30 09:33:26;;;;;;;9.20;5.82;;;;;;;6.10;77.93;97541.97;6065446;23;20222;-85
2020/12/30 09:35:53;;;;;;;10.82;9.77;;;;;;;6.10;78.18;97546.44;6067313;23;20207;-85
2020/12/30 09:38:21;;;;;;;7.55;5.47;;;;;;;6.04;77.18;97541.53;6090410;23;20245;-85
2020/12/30 09:40:49;;;;;;;7.97;5.20;;;;;;;5.88;77.94;97550.78;6089853;23;20215;-84
2020/12/30 09:43:19;;;;;;;8.18;4.85;;;;;;;6.02;78.47;97554.16;6066967;23;20262;-85
2020/12/30 09:45:47;;;;;;;6.78;5.47;;;;;;;5.93;77.53;97554.81;6089536;23;20202;-85
2020/12/30 09:48:13;;;;;;;8.63;6.45;;;;;;;5.97;77.45;97552.78;6089952;23;20211;-88
2020/12/30 09:50:40;;;;;;;6.68;4.38;;;;;;;5.88;76.78;97564.09;6052509;23;20234;-87
2020/12/30 09:53:07;;;;;;;9.07;5.10;;;;;;;5.88;76.98;97559.63;6050445;23;20198;-84
2020/12/30 09:55:34;;;;;;;7.68;5.22;;;;;;;5.97;77.19;97565.16;6051747;23;20201;-84
2020/12/30 09:58:00;;;;;;;6.97;4.32;;;;;;;6.09;76.73;97568.75;6073144;23;20218;-83
2020/12/30 10:00:27;;;;;;;5.30;4.63;;;;;;;6.26;76.50;97571.06;6075210;23;20214;-84
2020/12/30 10:02:54;;;;;;;5.90;4.70;;;;;;;6.31;75.37;97576.91;6046297;23;20716;-84
2020/12/30 10:05:20;;;;;;;10.07;5.03;;;;;;;6.27;75.77;97570.97;6070189;23;20563;-84
2020/12/30 10:07:46;;;;;;;6.53;5.03;;;;;;;6.40;75.78;97568.22;6048918;23;20202;-84
2020/12/30 10:10:12;;;;;;;19.73;5.55;;;;;;;6.32;75.53;97573.28;6070767;23;20262;-85
2020/12/30 10:12:39;;;;;;;11.05;6.00;;;;;;;6.44;75.52;97578.56;6048362;23;20206;-84
2020/12/30 10:15:11;;;;;;;21.15;5.53;;;;;;;6.36;75.71;97580.06;6044378;23;20207;-84
2020/12/30 10:17:39;;;;;;;16.23;5.20;;;;;;;6.35;75.17;97578.38;6049730;23;20274;-84
2020/12/30 10:20:07;;;;;;;7.03;5.13;;;;;;;6.31;75.97;97576.91;6051984;23;20191;-84
2020/12/30 10:22:34;;;;;;;6.05;4.95;;;;;;;6.48;75.42;97580.03;6075841;23;20579;-83
2020/12/30 10:25:03;;;;;;;7.05;6.03;;;;;;;6.53;75.22;97577.91;6103895;23;20214;-84
2020/12/30 10:27:30;;;;;;;9.20;4.90;;;;;;;6.68;74.06;97575.88;6048147;23;20214;-84
2020/12/30 10:29:56;;;;;;;6.25;4.72;;;;;;;6.72;73.81;97577.38;6047989;23;20542;-84
2020/12/30 10:32:22;;;;;;;4.45;4.05;;;;;;;6.66;74.46;97569.81;6069396;23;20215;-83
2020/12/30 10:34:48;;;;;;;8.32;5.22;;;;;;;6.59;74.62;97579.25;6051865;23;20172;-84
2020/12/30 10:37:23;;;;;;;5.07;4.55;;;;;;;6.52;74.35;97575.34;6074662;23;20210;-83
2020/12/30 10:39:49;;;;;;;8.80;4.95;;;;;;;6.49;74.31;97580.88;6052923;23;20266;-83
2020/12/30 10:42:16;;;;;;;7.25;4.90;;;;;;;6.53;74.74;97582.38;6057947;23;20195;-81
2020/12/30 10:44:46;;;;;;;5.30;4.80;;;;;;;6.72;74.38;97582.72;6084747;23;20207;-82
2020/12/30 10:47:13;;;;;;;7.70;4.60;;;;;;;6.76;73.68;97576.19;6092415;23;20179;-82
2020/12/30 10:49:39;;;;;;;8.88;5.43;;;;;;;6.87;74.34;97581.56;6090984;23;20234;-83
2020/12/30 10:52:07;;;;;;;5.30;4.80;;;;;;;6.91;73.05;97575.03;6047393;23;20226;-83
2020/12/30 10:54:33;;;;;;;6.85;5.50;;;;;;;6.89;73.37;97568.94;6050656;23;20215;-83
2020/12/30 10:57:02;;;;;;;8.43;6.32;;;;;;;6.81;74.24;97568.66;6096849;23;20242;-83
2020/12/30 10:59:28;;;;;;;7.10;5.60;;;;;;;7.02;73.79;97575.91;6056092;23;20207;-83
2020/12/30 11:01:54;;;;;;;7.50;5.25;;;;;;;7.23;73.56;97576.97;6101656;23;20236;-83
2020/12/30 11:04:20;;;;;;;8.50;5.57;;;;;;;7.40;72.54;97571.13;6051002;23;20300;-83
2020/12/30 11:06:47;;;;;;;8.20;5.95;;;;;;;7.29;71.75;97568.47;6047682;23;20227;-84
2020/12/30 11:09:13;;;;;;;5.88;5.22;;;;;;;7.05;73.29;97574.81;6045290;23;20286;-83
2020/12/30 11:11:40;;;;;;;10.35;6.72;;;;;;;7.02;73.00;97575.91;6072617;23;20214;-83
2020/12/30 11:14:07;;;;;;;8.80;5.93;;;;;;;6.88;73.17;97577.94;6096853;23;20206;-83
2020/12/30 11:16:33;;;;;;;6.85;5.55;;;;;;;6.80;72.32;97574.97;6077119;23;20235;-84
2020/12/30 11:19:00;;;;;;;7.88;5.35;;;;;;;6.69;72.88;97577.63;6069525;23;20207;-84
2020/12/30 11:21:26;;;;;;;9.70;5.80;;;;;;;6.56;73.58;97582.16;6048793;23;20207;-83
2020/12/30 11:23:52;;;;;;;6.85;5.32;;;;;;;6.65;73.14;97573.47;6069050;23;20203;-83
2020/12/30 11:26:28;;;;;;;6.95;5.95;;;;;;;6.76;73.81;97578.84;6049985;23;20210;-83
2020/12/30 11:29:06;;;;;;;8.48;6.00;;;;;;;6.77;73.50;97577.88;6072819;23;20195;-84
2020/12/30 11:31:36;;;;;;;8.57;5.75;;;;;;;6.73;73.34;97574.59;6097178;23;20213;-83
2020/12/30 11:34:02;;;;;;;7.32;5.78;;;;;;;6.52;73.92;97581.53;6048228;23;20225;-83
2020/12/30 11:36:28;;;;;;;8.55;6.80;;;;;;;6.50;74.74;97582.59;6075308;23;20222;-85
2020/12/30 11:38:55;;;;;;;7.45;5.88;;;;;;;6.49;74.89;97580.88;6097174;23;20258;-83
2020/12/30 11:41:21;;;;;;;8.13;6.53;;;;;;;6.28;74.96;97582.47;6075950;23;20234;-83
2020/12/30 11:43:47;;;;;;;10.63;7.18;;;;;;;6.46;75.49;97582.00;6075146;23;20186;-83
2020/12/30 11:46:19;;;;;;;8.43;6.72;;;;;;;6.53;74.93;97575.22;6074993;23;20203;-83
2020/12/30 11:48:46;;;;;;;10.57;6.85;;;;;;;6.59;74.57;97573.91;6073167;23;20652;-83